sensor_id;sensor_type;location;lat;lon;timestamp;pressure;altitude;pressure_sealevel;temperature;humidity
56944;BME280;42848;42.524;12.052;2024-01-07T00:02:08;94482.28;;;10.76;100.00
56944;BME280;42848;42.524;12.052;2024-01-07T00:04:34;94485.38;;;10.74;100.00
56944;BME280;42848;42.524;12.052;2024-01-07T00:07:00;94477.72;;;10.87;100.00
56944;BME280;42848;42.524;12.052;2024-01-07T00:09:25;94484.53;;;10.67;100.00
56944;BME280;42848;42.524;12.052;2024-01-07T00:11:51;94466.72;;;10.69;100.00
56944;BME280;42848;42.524;12.052;2024-01-07T00:14:17;94476.78;;;10.69;100.00
56944;BME280;42848;42.524;12.052;2024-01-07T00:16:42;94471.25;;;10.54;100.00
56944;BME280;42848;42.524;12.052;2024-01-07T00:19:08;94468.16;;;10.52;100.00
56944;BME280;42848;42.524;12.052;2024-01-07T00:21:34;94477.47;;;10.55;100.00
56944;BME280;42848;42.524;12.052;2024-01-07T00:24:00;94472.81;;;10.56;100.00
56944;BME280;42848;42.524;12.052;2024-01-07T00:26:25;94470.44;;;10.50;100.00
56944;BME280;42848;42.524;12.052;2024-01-07T00:28:51;94476.16;;;10.38;100.00
56944;BME280;42848;42.524;12.052;2024-01-07T00:31:17;94472.81;;;10.56;100.00
56944;BME280;42848;42.524;12.052;2024-01-07T00:33:42;94475.53;;;10.56;100.00
56944;BME280;42848;42.524;12.052;2024-01-07T00:36:08;94470.78;;;10.45;100.00
56944;BME280;42848;42.524;12.052;2024-01-07T00:38:34;94468.16;;;10.56;100.00
56944;BME280;42848;42.524;12.052;2024-01-07T00:40:59;94476.44;;;10.26;100.00
56944;BME280;42848;42.524;12.052;2024-01-07T00:43:25;94480.88;;;10.48;100.00
56944;BME280;42848;42.524;12.052;2024-01-07T00:45:50;94475.66;;;10.70;100.00
56944;BME280;42848;42.524;12.052;2024-01-07T00:48:16;94474.44;;;10.64;100.00
56944;BME280;42848;42.524;12.052;2024-01-07T00:50:42;94471.19;;;10.47;100.00
56944;BME280;42848;42.524;12.052;2024-01-07T00:53:08;94479.41;;;10.54;100.00
56944;BME280;42848;42.524;12.052;2024-01-07T00:55:33;94479.81;;;10.57;100.00
56944;BME280;42848;42.524;12.052;2024-01-07T00:58:01;94479.81;;;10.57;100.00
56944;BME280;42848;42.524;12.052;2024-01-07T01:00:28;94475.19;;;10.61;100.00
56944;BME280;42848;42.524;12.052;2024-01-07T01:02:55;94479.03;;;10.60;100.00
56944;BME280;42848;42.524;12.052;2024-01-07T01:05:21;94482.28;;;10.76;100.00
56944;BME280;42848;42.524;12.052;2024-01-07T01:07:46;94482.69;;;10.78;100.00
56944;BME280;42848;42.524;12.052;2024-01-07T01:10:12;94482.19;;;10.62;100.00
56944;BME280;42848;42.524;12.052;2024-01-07T01:12:40;94483.44;;;10.71;100.00
56944;BME280;42848;42.524;12.052;2024-01-07T01:15:05;94489.00;;;10.45;100.00
56944;BME280;42848;42.524;12.052;2024-01-07T01:17:31;94483.53;;;10.41;100.00
56944;BME280;42848;42.524;12.052;2024-01-07T01:19:57;94485.91;;;10.46;100.00
56944;BME280;42848;42.524;12.052;2024-01-07T01:22:22;94484.59;;;10.70;100.00
56944;BME280;42848;42.524;12.052;2024-01-07T01:24:48;94487.66;;;10.69;100.00
56944;BME280;42848;42.524;12.052;2024-01-07T01:27:14;94488.41;;;10.66;100.00
56944;BME280;42848;42.524;12.052;2024-01-07T01:29:41;94481.75;;;10.60;100.00
56944;BME280;42848;42.524;12.052;2024-01-07T01:32:06;94480.34;;;10.32;100.00
56944;BME280;42848;42.524;12.052;2024-01-07T01:34:32;94480.78;;;10.01;100.00
56944;BME280;42848;42.524;12.052;2024-01-07T01:36:58;94480.28;;;9.91;100.00
56944;BME280;42848;42.524;12.052;2024-01-07T01:39:23;94486.22;;;10.04;100.00
56944;BME280;42848;42.524;12.052;2024-01-07T01:41:49;94484.66;;;10.03;100.00
56944;BME280;42848;42.524;12.052;2024-01-07T01:44:15;94488.59;;;10.09;100.00
56944;BME280;42848;42.524;12.052;2024-01-07T01:46:40;94484.56;;;9.92;100.00
56944;BME280;42848;42.524;12.052;2024-01-07T01:49:07;94480.06;;;10.07;100.00
56944;BME280;42848;42.524;12.052;2024-01-07T01:51:34;94491.56;;;10.31;100.00
56944;BME280;42848;42.524;12.052;2024-01-07T01:54:00;94485.41;;;10.34;100.00
56944;BME280;42848;42.524;12.052;2024-01-07T01:56:27;94485.53;;;10.48;100.00
56944;BME280;42848;42.524;12.052;2024-01-07T01:58:55;94486.31;;;10.48;100.00
56944;BME280;42848;42.524;12.052;2024-01-07T02:01:23;94489.00;;;10.11;100.00
56944;BME280;42848;42.524;12.052;2024-01-07T02:03:49;94485.28;;;10.23;100.00
56944;BME280;42848;42.524;12.052;2024-01-07T02:06:17;94489.78;;;10.45;100.00
56944;BME280;42848;42.524;12.052;2024-01-07T02:08:44;94499.75;;;10.34;100.00
56944;BME280;42848;42.524;12.052;2024-01-07T02:11:21;94496.69;;;10.39;100.00
56944;BME280;42848;42.524;12.052;2024-01-07T02:13:47;94488.91;;;10.34;100.00
56944;BME280;42848;42.524;12.052;2024-01-07T02:16:14;94482.50;;;10.19;100.00
56944;BME280;42848;42.524;12.052;2024-01-07T02:18:41;94482.63;;;10.27;100.00
56944;BME280;42848;42.524;12.052;2024-01-07T02:21:08;94483.53;;;10.41;100.00
56944;BME280;42848;42.524;12.052;2024-01-07T02:23:35;94482.63;;;10.27;100.00
56944;BME280;42848;42.524;12.052;2024-01-07T02:26:01;94484.00;;;10.13;100.00
56944;BME280;42848;42.524;12.052;2024-01-07T02:28:27;94482.00;;;10.07;100.00
56944;BME280;42848;42.524;12.052;2024-01-07T02:30:52;94481.72;;;10.15;100.00
56944;BME280;42848;42.524;12.052;2024-01-07T02:33:18;94480.69;;;9.93;100.00
56944;BME280;42848;42.524;12.052;2024-01-07T02:35:44;94484.88;;;9.87;100.00
56944;BME280;42848;42.524;12.052;2024-01-07T02:38:09;94481.25;;;9.76;100.00
56944;BME280;42848;42.524;12.052;2024-01-07T02:40:35;94471.41;;;9.94;100.00
56944;BME280;42848;42.524;12.052;2024-01-07T02:43:00;94473.63;;;9.85;100.00
56944;BME280;42848;42.524;12.052;2024-01-07T02:45:26;94472.63;;;9.97;100.00
56944;BME280;42848;42.524;12.052;2024-01-07T02:47:52;94474.75;;;10.18;100.00
56944;BME280;42848;42.524;12.052;2024-01-07T02:50:17;94473.72;;;9.92;100.00
56944;BME280;42848;42.524;12.052;2024-01-07T02:52:43;94471.25;;;9.80;100.00
56944;BME280;42848;42.524;12.052;2024-01-07T02:55:09;94474.38;;;9.82;100.00
56944;BME280;42848;42.524;12.052;2024-01-07T02:57:34;94479.78;;;9.82;100.00
56944;BME280;42848;42.524;12.052;2024-01-07T03:00:00;94481.75;;;9.52;100.00
56944;BME280;42848;42.524;12.052;2024-01-07T03:02:26;94475.66;;;9.95;100.00
56944;BME280;42848;42.524;12.052;2024-01-07T03:04:51;94474.75;;;9.51;100.00
56944;BME280;42848;42.524;12.052;2024-01-07T03:07:17;94473.69;;;9.59;100.00
56944;BME280;42848;42.524;12.052;2024-01-07T03:09:43;94471.91;;;9.40;100.00
56944;BME280;42848;42.524;12.052;2024-01-07T03:12:08;94472.38;;;9.46;100.00
56944;BME280;42848;42.524;12.052;2024-01-07T03:14:34;94470.19;;;9.58;100.00
56944;BME280;42848;42.524;12.052;2024-01-07T03:16:59;94470.75;;;9.41;100.00
56944;BME280;42848;42.524;12.052;2024-01-07T03:19:25;94464.22;;;9.42;100.00
56944;BME280;42848;42.524;12.052;2024-01-07T03:21:51;94469.03;;;9.26;100.00
56944;BME280;42848;42.524;12.052;2024-01-07T03:24:16;94461.94;;;9.18;100.00
56944;BME280;42848;42.524;12.052;2024-01-07T03:26:42;94469.19;;;9.40;100.00
56944;BME280;42848;42.524;12.052;2024-01-07T03:29:08;94467.53;;;9.32;100.00
56944;BME280;42848;42.524;12.052;2024-01-07T03:31:33;94459.34;;;9.25;100.00
56944;BME280;42848;42.524;12.052;2024-01-07T03:33:59;94459.69;;;9.23;100.00
56944;BME280;42848;42.524;12.052;2024-01-07T03:36:25;94462.31;;;9.16;100.00
56944;BME280;42848;42.524;12.052;2024-01-07T03:38:50;94464.50;;;9.07;100.00
56944;BME280;42848;42.524;12.052;2024-01-07T03:41:20;94460.31;;;9.13;100.00
56944;BME280;42848;42.524;12.052;2024-01-07T03:43:46;94459.50;;;9.09;100.00
56944;BME280;42848;42.524;12.052;2024-01-07T03:46:13;94464.81;;;9.02;100.00
56944;BME280;42848;42.524;12.052;2024-01-07T03:48:38;94469.41;;;8.98;100.00
56944;BME280;42848;42.524;12.052;2024-01-07T03:51:04;94473.34;;;9.04;100.00
56944;BME280;42848;42.524;12.052;2024-01-07T03:53:30;94465.31;;;9.11;100.00
56944;BME280;42848;42.524;12.052;2024-01-07T03:55:55;94471.50;;;9.38;100.00
56944;BME280;42848;42.524;12.052;2024-01-07T03:58:21;94464.50;;;9.07;100.00
56944;BME280;42848;42.524;12.052;2024-01-07T04:00:47;94468.41;;;9.09;100.00
56944;BME280;42848;42.524;12.052;2024-01-07T04:03:12;94461.28;;;8.98;100.00
56944;BME280;42848;42.524;12.052;2024-01-07T04:05:38;94453.69;;;9.07;100.00
56944;BME280;42848;42.524;12.052;2024-01-07T04:08:04;94452.56;;;9.11;100.00
56944;BME280;42848;42.524;12.052;2024-01-07T04:10:29;94460.25;;;9.06;100.00
56944;BME280;42848;42.524;12.052;2024-01-07T04:12:55;94453.31;;;9.08;100.00
56944;BME280;42848;42.524;12.052;2024-01-07T04:15:21;94457.22;;;9.11;100.00
56944;BME280;42848;42.524;12.052;2024-01-07T04:17:47;94455.69;;;9.13;100.00
56944;BME280;42848;42.524;12.052;2024-01-07T04:20:13;94457.78;;;9.24;100.00
56944;BME280;42848;42.524;12.052;2024-01-07T04:22:39;94454.63;;;8.92;100.00
56944;BME280;42848;42.524;12.052;2024-01-07T04:25:04;94460.91;;;8.99;100.00
56944;BME280;42848;42.524;12.052;2024-01-07T04:27:37;94452.22;;;8.87;100.00
56944;BME280;42848;42.524;12.052;2024-01-07T04:30:05;94460.69;;;8.85;100.00
56944;BME280;42848;42.524;12.052;2024-01-07T04:32:31;94462.25;;;8.86;100.00
56944;BME280;42848;42.524;12.052;2024-01-07T04:34:57;94466.88;;;8.86;100.00
56944;BME280;42848;42.524;12.052;2024-01-07T04:37:24;94458.59;;;8.98;100.00
56944;BME280;42848;42.524;12.052;2024-01-07T04:39:50;94466.03;;;8.78;100.00
56944;BME280;42848;42.524;12.052;2024-01-07T04:42:17;94459.72;;;8.70;100.00
56944;BME280;42848;42.524;12.052;2024-01-07T04:44:43;94464.97;;;8.86;100.00
56944;BME280;42848;42.524;12.052;2024-01-07T04:47:29;94463.84;;;8.87;100.00
56944;BME280;42848;42.524;12.052;2024-01-07T04:49:55;94455.13;;;8.74;100.00
56944;BME280;42848;42.524;12.052;2024-01-07T04:52:24;94466.31;;;8.73;100.00
56944;BME280;42848;42.524;12.052;2024-01-07T04:54:53;94454.41;;;8.77;100.00
56944;BME280;42848;42.524;12.052;2024-01-07T04:57:20;94463.44;;;8.62;100.00
56944;BME280;42848;42.524;12.052;2024-01-07T04:59:47;94462.31;;;8.63;100.00
56944;BME280;42848;42.524;12.052;2024-01-07T05:02:13;94461.97;;;8.68;100.00
56944;BME280;42848;42.524;12.052;2024-01-07T05:04:39;94471.63;;;8.92;100.00
56944;BME280;42848;42.524;12.052;2024-01-07T05:07:05;94475.78;;;8.86;100.00
56944;BME280;42848;42.524;12.052;2024-01-07T05:09:32;94462.88;;;8.76;100.00
56944;BME280;42848;42.524;12.052;2024-01-07T05:11:59;94463.66;;;8.76;100.00
56944;BME280;42848;42.524;12.052;2024-01-07T05:14:25;94467.63;;;8.82;100.00
56944;BME280;42848;42.524;12.052;2024-01-07T05:16:53;94463.56;;;8.96;100.00
56944;BME280;42848;42.524;12.052;2024-01-07T05:19:18;94473.00;;;8.79;100.00
56944;BME280;42848;42.524;12.052;2024-01-07T05:21:44;94468.13;;;8.65;100.00
56944;BME280;42848;42.524;12.052;2024-01-07T05:24:10;94474.59;;;8.83;100.00
56944;BME280;42848;42.524;12.052;2024-01-07T05:26:43;94476.94;;;8.85;100.00
56944;BME280;42848;42.524;12.052;2024-01-07T05:29:10;94468.97;;;8.69;100.00
56944;BME280;42848;42.524;12.052;2024-01-07T05:31:37;94483.63;;;8.68;100.00
56944;BME280;42848;42.524;12.052;2024-01-07T05:34:03;94481.88;;;8.57;100.00
56944;BME280;42848;42.524;12.052;2024-01-07T05:36:28;94485.91;;;8.66;100.00
56944;BME280;42848;42.524;12.052;2024-01-07T05:38:54;94484.59;;;8.57;100.00
56944;BME280;42848;42.524;12.052;2024-01-07T05:41:20;94488.09;;;8.57;100.00
56944;BME280;42848;42.524;12.052;2024-01-07T05:43:46;94479.03;;;8.46;100.00
56944;BME280;42848;42.524;12.052;2024-01-07T05:46:11;94477.03;;;8.43;100.00
56944;BME280;42848;42.524;12.052;2024-01-07T05:48:42;94477.47;;;8.45;100.00
56944;BME280;42848;42.524;12.052;2024-01-07T05:51:09;94489.19;;;8.52;100.00
56944;BME280;42848;42.524;12.052;2024-01-07T05:53:34;94479.44;;;8.48;100.00
56944;BME280;42848;42.524;12.052;2024-01-07T05:56:00;94489.41;;;8.44;100.00
56944;BME280;42848;42.524;12.052;2024-01-07T05:58:26;94494.22;;;8.54;100.00
56944;BME280;42848;42.524;12.052;2024-01-07T06:00:51;94490.31;;;8.51;100.00
56944;BME280;42848;42.524;12.052;2024-01-07T06:03:17;94497.13;;;8.42;100.00
56944;BME280;42848;42.524;12.052;2024-01-07T06:05:43;94499.03;;;8.64;100.00
56944;BME280;42848;42.524;12.052;2024-01-07T06:08:09;94492.88;;;8.67;100.00
56944;BME280;42848;42.524;12.052;2024-01-07T06:10:35;94501.06;;;8.48;100.00
56944;BME280;42848;42.524;12.052;2024-01-07T06:13:01;94499.81;;;8.42;100.00
56944;BME280;42848;42.524;12.052;2024-01-07T06:15:29;94501.75;;;8.41;100.00
56944;BME280;42848;42.524;12.052;2024-01-07T06:17:54;94500.22;;;8.44;100.00
56944;BME280;42848;42.524;12.052;2024-01-07T06:20:21;94509.47;;;8.43;100.00
56944;BME280;42848;42.524;12.052;2024-01-07T06:22:47;94505.94;;;8.39;100.00
56944;BME280;42848;42.524;12.052;2024-01-07T06:25:12;94514.94;;;8.46;100.00
56944;BME280;42848;42.524;12.052;2024-01-07T06:27:39;94516.16;;;8.30;100.00
56944;BME280;42848;42.524;12.052;2024-01-07T06:30:05;94516.88;;;8.26;100.00
56944;BME280;42848;42.524;12.052;2024-01-07T06:32:31;94521.31;;;8.35;100.00
56944;BME280;42848;42.524;12.052;2024-01-07T06:34:58;94518.59;;;8.35;100.00
56944;BME280;42848;42.524;12.052;2024-01-07T06:37:24;94520.00;;;8.28;100.00
56944;BME280;42848;42.524;12.052;2024-01-07T06:39:49;94523.84;;;8.27;100.00
56944;BME280;42848;42.524;12.052;2024-01-07T06:42:15;94520.78;;;8.29;100.00
56944;BME280;42848;42.524;12.052;2024-01-07T06:44:40;94518.44;;;8.27;100.00
56944;BME280;42848;42.524;12.052;2024-01-07T06:47:07;94523.28;;;8.38;100.00
56944;BME280;42848;42.524;12.052;2024-01-07T06:49:32;94524.25;;;8.30;100.00
56944;BME280;42848;42.524;12.052;2024-01-07T06:51:58;94529.13;;;8.20;100.00
56944;BME280;42848;42.524;12.052;2024-01-07T06:54:25;94536.09;;;8.21;100.00
56944;BME280;42848;42.524;12.052;2024-01-07T06:56:50;94526.00;;;8.18;100.00
56944;BME280;42848;42.524;12.052;2024-01-07T06:59:16;94530.09;;;8.32;100.00
56944;BME280;42848;42.524;12.052;2024-01-07T07:01:42;94535.25;;;8.17;100.00
56944;BME280;42848;42.524;12.052;2024-01-07T07:04:07;94533.47;;;8.25;100.00
56944;BME280;42848;42.524;12.052;2024-01-07T07:06:33;94539.22;;;8.23;100.00
56944;BME280;42848;42.524;12.052;2024-01-07T07:08:59;94538.38;;;8.19;100.00
56944;BME280;42848;42.524;12.052;2024-01-07T07:11:25;94539.94;;;8.20;100.00
56944;BME280;42848;42.524;12.052;2024-01-07T07:13:50;94545.63;;;8.15;100.00
56944;BME280;42848;42.524;12.052;2024-01-07T07:16:16;94541.50;;;8.21;100.00
56944;BME280;42848;42.524;12.052;2024-01-07T07:18:42;94548.91;;;8.24;100.00
56944;BME280;42848;42.524;12.052;2024-01-07T07:21:07;94550.31;;;8.18;100.00
56944;BME280;42848;42.524;12.052;2024-01-07T07:23:33;94554.53;;;8.16;100.00
56944;BME280;42848;42.524;12.052;2024-01-07T07:25:59;94552.19;;;8.14;100.00
56944;BME280;42848;42.524;12.052;2024-01-07T07:28:25;94554.53;;;8.16;100.00
56944;BME280;42848;42.524;12.052;2024-01-07T07:30:50;94570.66;;;8.12;100.00
56944;BME280;42848;42.524;12.052;2024-01-07T07:33:17;94561.78;;;8.12;100.00
56944;BME280;42848;42.524;12.052;2024-01-07T07:35:42;94558.69;;;8.13;100.00
56944;BME280;42848;42.524;12.052;2024-01-07T07:38:08;94567.31;;;8.19;100.00
56944;BME280;42848;42.524;12.052;2024-01-07T07:40:34;94563.06;;;8.18;100.00
56944;BME280;42848;42.524;12.052;2024-01-07T07:42:59;94558.38;;;8.15;100.00
56944;BME280;42848;42.524;12.052;2024-01-07T07:45:25;94571.22;;;8.21;100.00
56944;BME280;42848;42.524;12.052;2024-01-07T07:47:50;94576.34;;;8.26;100.00
56944;BME280;42848;42.524;12.052;2024-01-07T07:50:16;94580.31;;;8.13;100.00
56944;BME280;42848;42.524;12.052;2024-01-07T07:52:42;94584.94;;;8.13;100.00
56944;BME280;42848;42.524;12.052;2024-01-07T07:55:11;94574.50;;;8.11;100.00
56944;BME280;42848;42.524;12.052;2024-01-07T07:57:36;94581.56;;;8.16;100.00
56944;BME280;42848;42.524;12.052;2024-01-07T08:00:07;94582.97;;;8.10;100.00
56944;BME280;42848;42.524;12.052;2024-01-07T08:02:32;94585.47;;;8.18;100.00
56944;BME280;42848;42.524;12.052;2024-01-07T08:04:58;94583.75;;;8.10;100.00
56944;BME280;42848;42.524;12.052;2024-01-07T08:07:24;94583.31;;;8.08;100.00
56944;BME280;42848;42.524;12.052;2024-01-07T08:09:50;94583.31;;;8.08;100.00
56944;BME280;42848;42.524;12.052;2024-01-07T08:12:16;94583.69;;;8.07;100.00
56944;BME280;42848;42.524;12.052;2024-01-07T08:14:42;94588.22;;;8.22;100.00
56944;BME280;42848;42.524;12.052;2024-01-07T08:17:08;94585.03;;;8.16;100.00
56944;BME280;42848;42.524;12.052;2024-01-07T08:19:34;94587.66;;;8.13;100.00
56944;BME280;42848;42.524;12.052;2024-01-07T08:21:59;94598.41;;;8.09;100.00
56944;BME280;42848;42.524;12.052;2024-01-07T08:24:25;94601.81;;;8.06;100.00
56944;BME280;42848;42.524;12.052;2024-01-07T08:26:51;94599.59;;;8.12;100.00
56944;BME280;42848;42.524;12.052;2024-01-07T08:29:17;94589.16;;;8.10;100.00
56944;BME280;42848;42.524;12.052;2024-01-07T08:31:43;94598.81;;;8.31;100.00
56944;BME280;42848;42.524;12.052;2024-01-07T08:34:08;94608.41;;;8.28;100.00
56944;BME280;42848;42.524;12.052;2024-01-07T08:36:34;94598.13;;;8.14;100.00
56944;BME280;42848;42.524;12.052;2024-01-07T08:38:59;94603.16;;;8.16;100.00
56944;BME280;42848;42.524;12.052;2024-01-07T08:41:26;94609.78;;;8.18;100.00
56944;BME280;42848;42.524;12.052;2024-01-07T08:43:52;94616.38;;;8.21;100.00
56944;BME280;42848;42.524;12.052;2024-01-07T08:46:20;94616.88;;;8.26;100.00
56944;BME280;42848;42.524;12.052;2024-01-07T08:48:46;94618.81;;;8.26;100.00
56944;BME280;42848;42.524;12.052;2024-01-07T08:51:12;94615.59;;;8.20;100.00
56944;BME280;42848;42.524;12.052;2024-01-07T08:53:39;94615.41;;;8.10;100.00
56944;BME280;42848;42.524;12.052;2024-01-07T08:56:06;94625.56;;;8.16;100.00
56944;BME280;42848;42.524;12.052;2024-01-07T08:58:32;94624.22;;;8.26;100.00
56944;BME280;42848;42.524;12.052;2024-01-07T09:00:58;94622.16;;;8.39;100.00
56944;BME280;42848;42.524;12.052;2024-01-07T09:03:24;94625.75;;;8.43;100.00
56944;BME280;42848;42.524;12.052;2024-01-07T09:05:49;94635.50;;;8.32;100.00
56944;BME280;42848;42.524;12.052;2024-01-07T09:08:15;94632.94;;;8.35;100.00
56944;BME280;42848;42.524;12.052;2024-01-07T09:10:41;94631.97;;;8.27;100.00
56944;BME280;42848;42.524;12.052;2024-01-07T09:13:06;94636.53;;;8.23;100.00
56944;BME280;42848;42.524;12.052;2024-01-07T09:15:32;94631.78;;;8.36;100.00
56944;BME280;42848;42.524;12.052;2024-01-07T09:17:58;94630.69;;;8.41;100.00
56944;BME280;42848;42.524;12.052;2024-01-07T09:20:23;94628.56;;;8.50;100.00
56944;BME280;42848;42.524;12.052;2024-01-07T09:22:49;94626.16;;;8.45;100.00
56944;BME280;42848;42.524;12.052;2024-01-07T09:25:15;94628.72;;;8.38;100.00
56944;BME280;42848;42.524;12.052;2024-01-07T09:27:42;94634.84;;;8.54;100.00
56944;BME280;42848;42.524;12.052;2024-01-07T09:30:08;94629.66;;;8.68;100.00
56944;BME280;42848;42.524;12.052;2024-01-07T09:32:37;94628.00;;;8.60;100.00
56944;BME280;42848;42.524;12.052;2024-01-07T09:35:02;94629.69;;;8.49;100.00
56944;BME280;42848;42.524;12.052;2024-01-07T09:37:31;94624.06;;;8.58;100.00
56944;BME280;42848;42.524;12.052;2024-01-07T09:39:57;94621.00;;;8.59;100.00
56944;BME280;42848;42.524;12.052;2024-01-07T09:42:23;94624.78;;;8.54;100.00
56944;BME280;42848;42.524;12.052;2024-01-07T09:44:50;94619.44;;;8.58;100.00
56944;BME280;42848;42.524;12.052;2024-01-07T09:47:16;94629.69;;;8.49;100.00
56944;BME280;42848;42.524;12.052;2024-01-07T09:49:43;94630.06;;;8.47;100.00
56944;BME280;42848;42.524;12.052;2024-01-07T09:52:10;94631.56;;;8.45;100.00
56944;BME280;42848;42.524;12.052;2024-01-07T09:54:38;94633.31;;;8.57;100.00
56944;BME280;42848;42.524;12.052;2024-01-07T09:57:05;94625.28;;;8.60;100.00
56944;BME280;42848;42.524;12.052;2024-01-07T09:59:36;94622.88;;;8.55;100.00
56944;BME280;42848;42.524;12.052;2024-01-07T10:02:04;94641.81;;;8.55;100.00
56944;BME280;42848;42.524;12.052;2024-01-07T10:04:30;94636.25;;;8.48;100.00
56944;BME280;42848;42.524;12.052;2024-01-07T10:06:57;94641.66;;;8.48;100.00
56944;BME280;42848;42.524;12.052;2024-01-07T10:09:33;94634.84;;;8.54;100.00
56944;BME280;42848;42.524;12.052;2024-01-07T10:11:59;94640.50;;;8.49;100.00
56944;BME280;42848;42.524;12.052;2024-01-07T10:14:26;94637.16;;;8.55;100.00
56944;BME280;42848;42.524;12.052;2024-01-07T10:16:52;94643.94;;;8.46;100.00
56944;BME280;42848;42.524;12.052;2024-01-07T10:19:20;94635.41;;;8.44;100.00
56944;BME280;42848;42.524;12.052;2024-01-07T10:21:46;94639.31;;;8.46;100.00
56944;BME280;42848;42.524;12.052;2024-01-07T10:24:13;94640.09;;;8.47;100.00
56944;BME280;42848;42.524;12.052;2024-01-07T10:26:39;94636.56;;;8.43;100.00
56944;BME280;42848;42.524;12.052;2024-01-07T10:29:07;94633.13;;;8.46;100.00
56944;BME280;42848;42.524;12.052;2024-01-07T10:31:38;94626.88;;;8.42;100.00
56944;BME280;42848;42.524;12.052;2024-01-07T10:34:09;94639.69;;;8.45;100.00
56944;BME280;42848;42.524;12.052;2024-01-07T10:36:35;94628.66;;;8.53;100.00
56944;BME280;42848;42.524;12.052;2024-01-07T10:39:02;94627.00;;;8.49;100.00
56944;BME280;42848;42.524;12.052;2024-01-07T10:41:29;94626.34;;;8.55;100.00
56944;BME280;42848;42.524;12.052;2024-01-07T10:43:55;94628.56;;;8.50;100.00
56944;BME280;42848;42.524;12.052;2024-01-07T10:46:21;94627.00;;;8.49;100.00
56944;BME280;42848;42.524;12.052;2024-01-07T10:49:00;94621.47;;;8.42;100.00
56944;BME280;42848;42.524;12.052;2024-01-07T10:51:28;94633.13;;;8.46;100.00
56944;BME280;42848;42.524;12.052;2024-01-07T10:53:55;94631.41;;;8.38;100.00
56944;BME280;42848;42.524;12.052;2024-01-07T10:56:25;94619.88;;;8.41;100.00
56944;BME280;42848;42.524;12.052;2024-01-07T10:58:56;94618.47;;;8.47;100.00
56944;BME280;42848;42.524;12.052;2024-01-07T11:01:23;94617.50;;;8.59;100.00
56944;BME280;42848;42.524;12.052;2024-01-07T11:04:10;94607.16;;;8.61;100.00
56944;BME280;42848;42.524;12.052;2024-01-07T11:06:45;94624.84;;;8.58;100.00
56944;BME280;42848;42.524;12.052;2024-01-07T11:09:34;94609.63;;;8.50;100.00
56944;BME280;42848;42.524;12.052;2024-01-07T11:12:01;94616.66;;;8.74;100.00
56944;BME280;42848;42.524;12.052;2024-01-07T11:14:43;94622.66;;;8.64;100.00
56944;BME280;42848;42.524;12.052;2024-01-07T11:17:48;94605.50;;;8.56;100.00
56944;BME280;42848;42.524;12.052;2024-01-07T11:20:20;94616.13;;;8.45;100.00
56944;BME280;42848;42.524;12.052;2024-01-07T11:22:46;94610.00;;;8.48;100.00
56944;BME280;42848;42.524;12.052;2024-01-07T11:25:31;94613.69;;;8.40;100.00
56944;BME280;42848;42.524;12.052;2024-01-07T11:27:59;94601.78;;;8.64;100.00
56944;BME280;42848;42.524;12.052;2024-01-07T11:30:26;94607.78;;;8.54;100.00
56944;BME280;42848;42.524;12.052;2024-01-07T11:33:01;94598.50;;;8.74;100.00
56944;BME280;42848;42.524;12.052;2024-01-07T11:38:16;94604.56;;;8.68;100.00
56944;BME280;42848;42.524;12.052;2024-01-07T11:40:42;94614.25;;;8.69;100.00
56944;BME280;42848;42.524;12.052;2024-01-07T11:43:09;94608.91;;;8.72;100.00
56944;BME280;42848;42.524;12.052;2024-01-07T11:45:36;94597.09;;;8.61;100.00
56944;BME280;42848;42.524;12.052;2024-01-07T11:48:02;94596.03;;;8.66;100.00
56944;BME280;42848;42.524;12.052;2024-01-07T11:50:28;94601.97;;;8.52;100.00
56944;BME280;42848;42.524;12.052;2024-01-07T11:52:54;94594.44;;;8.42;100.00
56944;BME280;42848;42.524;12.052;2024-01-07T11:55:20;94594.03;;;8.63;100.00
56944;BME280;42848;42.524;12.052;2024-01-07T11:57:46;94585.00;;;8.55;100.00
56944;BME280;42848;42.524;12.052;2024-01-07T12:00:12;94598.53;;;8.55;100.00
56944;BME280;42848;42.524;12.052;2024-01-07T12:02:38;94596.06;;;8.46;100.00
56944;BME280;42848;42.524;12.052;2024-01-07T12:05:04;94590.13;;;8.60;100.00
56944;BME280;42848;42.524;12.052;2024-01-07T12:07:30;94593.16;;;8.36;100.00
56944;BME280;42848;42.524;12.052;2024-01-07T12:09:57;94592.00;;;8.37;100.00
56944;BME280;42848;42.524;12.052;2024-01-07T12:12:24;94596.84;;;8.47;100.00
56944;BME280;42848;42.524;12.052;2024-01-07T12:14:50;94597.03;;;8.19;100.00
56944;BME280;42848;42.524;12.052;2024-01-07T12:17:18;94590.72;;;8.11;100.00
56944;BME280;42848;42.524;12.052;2024-01-07T12:19:45;94596.13;;;8.11;100.00
56944;BME280;42848;42.524;12.052;2024-01-07T12:22:10;94588.38;;;8.10;100.00
56944;BME280;42848;42.524;12.052;2024-01-07T12:24:36;94587.16;;;8.26;100.00
56944;BME280;42848;42.524;12.052;2024-01-07T12:27:06;94595.44;;;8.14;100.00
56944;BME280;42848;42.524;12.052;2024-01-07T12:29:31;94592.78;;;8.37;100.00
56944;BME280;42848;42.524;12.052;2024-01-07T12:31:57;94597.56;;;8.24;100.00
56944;BME280;42848;42.524;12.052;2024-01-07T12:34:22;94592.06;;;8.21;100.00
56944;BME280;42848;42.524;12.052;2024-01-07T12:36:49;94595.84;;;7.97;100.00
56944;BME280;42848;42.524;12.052;2024-01-07T12:39:14;94592.25;;;8.32;100.00
56944;BME280;42848;42.524;12.052;2024-01-07T12:41:40;94590.59;;;8.43;100.00
56944;BME280;42848;42.524;12.052;2024-01-07T12:44:06;94590.28;;;8.09;100.00
56944;BME280;42848;42.524;12.052;2024-01-07T12:46:35;94587.09;;;8.42;100.00
56944;BME280;42848;42.524;12.052;2024-01-07T12:49:00;94590.78;;;8.34;100.00